createdAt,value
2018-03-07T00:00:04.909Z,68.35
2018-03-07T00:02:32.421Z,73.60
2018-03-07T00:04:59.982Z,73.12
2018-03-07T00:07:27.485Z,69.43
2018-03-07T00:09:54.986Z,70.97
2018-03-07T00:12:22.476Z,69.47
2018-03-07T00:14:50.058Z,74.68
2018-03-07T00:17:18.261Z,60.92
2018-03-07T00:19:45.843Z,70.57
2018-03-07T00:22:15.217Z,69.12
2018-03-07T00:24:42.721Z,65.43
2018-03-07T00:27:10.978Z,71.68
2018-03-07T00:29:38.529Z,70.97
2018-03-07T00:32:06.763Z,63.53
2018-03-07T00:34:34.261Z,72.25
2018-03-07T00:37:01.738Z,71.57
2018-03-07T00:39:30.092Z,62.35
2018-03-07T00:41:57.560Z,74.72
2018-03-07T00:44:25.021Z,78.45
2018-03-07T00:46:53.261Z,74.22
2018-03-07T00:49:20.738Z,74.57
2018-03-07T00:51:48.228Z,69.82
2018-03-07T00:54:15.702Z,71.68
2018-03-07T00:56:43.179Z,68.45
2018-03-07T00:59:10.650Z,71.62
2018-03-07T01:01:38.122Z,71.97
2018-03-07T01:04:05.582Z,69.55
2018-03-07T01:06:33.049Z,71.10
2018-03-07T01:09:00.564Z,65.30
2018-03-07T01:11:28.038Z,69.60
2018-03-07T01:13:55.497Z,65.97
2018-03-07T01:16:23.007Z,62.92
2018-03-07T01:18:50.467Z,74.32
2018-03-07T01:21:17.930Z,83.55
2018-03-07T01:23:45.445Z,68.12
2018-03-07T01:26:12.902Z,71.60
2018-03-07T01:28:41.142Z,74.10
2018-03-07T01:31:08.605Z,71.97
2018-03-07T01:33:36.073Z,71.28
2018-03-07T01:36:03.534Z,69.80
2018-03-07T01:38:31.058Z,66.37
2018-03-07T01:40:58.531Z,68.18
2018-03-07T01:43:26.004Z,72.43
2018-03-07T01:45:53.670Z,67.95
2018-03-07T01:48:21.136Z,74.78
2018-03-07T01:50:48.685Z,74.57
2018-03-07T01:53:16.249Z,73.80
2018-03-07T01:55:43.718Z,70.32
2018-03-07T01:58:11.983Z,66.57
2018-03-07T02:00:39.454Z,73.47
2018-03-07T02:03:06.941Z,74.82
2018-03-07T02:05:34.406Z,79.90
2018-03-07T02:08:01.919Z,76.25
2018-03-07T02:10:30.152Z,73.85
2018-03-07T02:12:57.634Z,67.57
2018-03-07T02:15:25.205Z,76.55
2018-03-07T02:17:52.673Z,69.82
2018-03-07T02:20:20.946Z,65.97
2018-03-07T02:22:49.173Z,73.60
2018-03-07T02:25:16.658Z,76.05
2018-03-07T02:27:44.378Z,86.97
2018-03-07T02:30:11.882Z,85.35
2018-03-07T02:32:39.458Z,71.37
2018-03-07T02:35:07.684Z,86.20
2018-03-07T02:37:35.171Z,72.15
2018-03-07T02:40:02.729Z,77.97
2018-03-07T02:42:30.202Z,78.45
2018-03-07T02:44:57.659Z,84.45
2018-03-07T02:47:25.925Z,86.37
2018-03-07T02:49:53.478Z,82.53
2018-03-07T02:52:20.952Z,81.18
2018-03-07T02:54:48.413Z,74.72
2018-03-07T02:57:16.673Z,82.15
2018-03-07T02:59:44.236Z,85.60
2018-03-07T03:02:11.841Z,81.00
2018-03-07T03:04:39.345Z,90.18
2018-03-07T03:07:06.907Z,80.03
2018-03-07T03:09:34.464Z,89.60
2018-03-07T03:12:01.921Z,82.40
2018-03-07T03:14:29.384Z,82.80
2018-03-07T03:16:57.625Z,82.47
2018-03-07T03:19:25.114Z,91.15
2018-03-07T03:21:52.582Z,79.55
2018-03-07T03:24:20.804Z,78.30
2018-03-07T03:26:48.281Z,86.22
2018-03-07T03:29:15.850Z,93.20
2018-03-07T03:31:43.410Z,79.00
2018-03-07T03:34:10.965Z,81.45
2018-03-07T03:36:38.437Z,79.07
2018-03-07T03:39:05.989Z,74.72
2018-03-07T03:41:33.547Z,81.20
2018-03-07T03:44:01.106Z,87.57
2018-03-07T03:46:28.597Z,81.15
2018-03-07T03:48:56.121Z,82.93
2018-03-07T03:51:23.578Z,80.18
2018-03-07T03:53:51.040Z,77.05
2018-03-07T03:56:18.500Z,80.07
2018-03-07T03:58:46.733Z,80.32
2018-03-07T04:01:14.213Z,78.25
2018-03-07T04:03:41.676Z,79.60
2018-03-07T04:06:09.233Z,90.55
2018-03-07T04:08:36.789Z,76.70
2018-03-07T04:11:04.359Z,80.40
2018-03-07T04:13:31.840Z,80.65
2018-03-07T04:16:00.089Z,84.60
2018-03-07T04:18:27.546Z,85.95
2018-03-07T04:20:55.016Z,68.45
2018-03-07T04:23:23.273Z,81.05
2018-03-07T04:25:50.835Z,74.07
2018-03-07T04:28:18.294Z,80.43
2018-03-07T04:30:45.771Z,77.37
2018-03-07T04:33:14.013Z,87.22
2018-03-07T04:35:41.490Z,76.28
2018-03-07T04:38:09.037Z,82.18
2018-03-07T04:40:36.597Z,80.03
2018-03-07T04:43:04.156Z,70.18
2018-03-07T04:45:31.637Z,74.97
2018-03-07T04:47:59.861Z,83.37
2018-03-07T04:50:27.328Z,80.47
2018-03-07T04:52:54.897Z,72.68
2018-03-07T04:55:22.456Z,81.35
2018-03-07T04:57:50.025Z,79.32
2018-03-07T05:00:17.601Z,80.20
2018-03-07T05:02:45.899Z,80.65
2018-03-07T05:05:13.301Z,86.85
2018-03-07T05:07:40.773Z,78.85
2018-03-07T05:10:08.236Z,73.40
2018-03-07T05:12:35.724Z,85.93
2018-03-07T05:15:03.194Z,82.95
2018-03-07T05:17:30.705Z,77.50
2018-03-07T05:19:58.264Z,76.90
2018-03-07T05:22:25.724Z,83.68
2018-03-07T05:24:53.196Z,82.20
2018-03-07T05:27:21.445Z,87.00
2018-03-07T05:29:49.011Z,80.45
2018-03-07T05:32:16.473Z,76.03
2018-03-07T05:34:44.733Z,85.82
2018-03-07T05:37:12.205Z,81.55
2018-03-07T05:39:40.441Z,91.40
2018-03-07T05:42:07.929Z,83.18
2018-03-07T05:44:36.176Z,88.62
2018-03-07T05:47:03.640Z,90.35
2018-03-07T05:49:31.098Z,93.30
2018-03-07T05:51:58.680Z,97.72
2018-03-07T05:54:26.140Z,89.45
2018-03-07T05:56:53.608Z,84.28
2018-03-07T05:59:21.864Z,73.68
2018-03-07T06:01:49.487Z,97.75
2018-03-07T06:04:16.952Z,90.90
2018-03-07T06:06:44.429Z,79.25
2018-03-07T06:09:11.884Z,77.40
2018-03-07T06:11:39.356Z,85.50
2018-03-07T06:14:06.817Z,81.90
2018-03-07T06:16:34.273Z,84.20
2018-03-07T06:19:01.826Z,79.40
2018-03-07T06:21:29.368Z,87.15
2018-03-07T06:23:58.370Z,92.35
2018-03-07T06:26:25.852Z,87.12
2018-03-07T06:28:53.303Z,80.62
2018-03-07T06:31:21.524Z,84.95
2018-03-07T06:33:49.117Z,83.30
2018-03-07T06:36:16.588Z,86.30
2018-03-07T06:38:46.073Z,86.72
2018-03-07T06:41:14.352Z,90.57
2018-03-07T06:43:41.821Z,88.70
2018-03-07T06:46:09.295Z,99.62
2018-03-07T06:48:37.540Z,79.15
2018-03-07T06:51:05.014Z,87.82
2018-03-07T06:53:33.336Z,75.43
2018-03-07T06:56:00.817Z,88.45
2018-03-07T06:58:28.293Z,88.35
2018-03-07T07:00:57.281Z,80.65
2018-03-07T07:03:24.753Z,95.38
2018-03-07T07:05:52.308Z,86.57
2018-03-07T07:08:19.784Z,86.20
2018-03-07T07:10:48.048Z,84.57
2018-03-07T07:13:16.282Z,84.47
2018-03-07T07:15:43.748Z,75.60
2018-03-07T07:18:11.221Z,83.20
2018-03-07T07:20:38.677Z,93.28
2018-03-07T07:23:06.232Z,83.35
2018-03-07T07:25:33.693Z,76.85
2018-03-07T07:28:01.158Z,91.35
2018-03-07T07:30:28.622Z,85.38
2018-03-07T07:32:56.885Z,99.20
2018-03-07T07:35:24.438Z,95.47
2018-03-07T07:37:51.996Z,87.40
2018-03-07T07:40:19.469Z,81.40
2018-03-07T07:42:46.936Z,73.68
2018-03-07T07:45:15.166Z,92.18
2018-03-07T07:47:42.633Z,87.55
2018-03-07T07:50:10.108Z,80.00
2018-03-07T07:52:37.564Z,79.50
2018-03-07T07:55:05.033Z,78.18
2018-03-07T07:57:33.265Z,75.30
2018-03-07T08:00:00.738Z,76.07
2018-03-07T08:02:28.197Z,85.60
2018-03-07T08:04:55.657Z,78.37
2018-03-07T08:07:23.217Z,77.35
2018-03-07T08:09:50.776Z,75.57
2018-03-07T08:12:18.239Z,76.32
2018-03-07T08:14:45.792Z,74.80
2018-03-07T08:17:13.365Z,71.82
2018-03-07T08:19:42.648Z,67.65
2018-03-07T08:22:10.209Z,67.65
2018-03-07T08:24:37.769Z,84.87
2018-03-07T08:27:05.329Z,71.40
2018-03-07T08:29:33.605Z,62.25
2018-03-07T08:32:01.072Z,66.57
2018-03-07T08:34:29.316Z,76.00
2018-03-07T08:36:56.794Z,83.43
2018-03-07T08:39:24.353Z,73.80
2018-03-07T08:41:51.821Z,71.45
2018-03-07T08:44:20.065Z,71.53
2018-03-07T08:46:47.532Z,76.50
2018-03-07T08:49:16.525Z,83.10
2018-03-07T08:51:43.997Z,67.15
2018-03-07T08:54:12.235Z,75.68
2018-03-07T08:56:39.721Z,67.47
2018-03-07T08:59:07.189Z,59.65
2018-03-07T09:01:35.448Z,81.25
2018-03-07T09:04:02.917Z,70.28
2018-03-07T09:06:30.371Z,67.50
2018-03-07T09:08:58.633Z,63.22
2018-03-07T09:11:26.109Z,66.50
2018-03-07T09:13:54.379Z,66.57
2018-03-07T09:16:21.836Z,75.47
2018-03-07T09:18:49.318Z,65.97
2018-03-07T09:21:16.964Z,66.53
2018-03-07T09:23:45.230Z,64.62
2018-03-07T09:26:12.788Z,61.55
2018-03-07T09:28:40.349Z,60.17
2018-03-07T09:31:09.314Z,63.28
2018-03-07T09:33:36.797Z,70.57
2018-03-07T09:36:04.257Z,60.15
2018-03-07T09:38:31.729Z,54.58
2018-03-07T09:40:59.997Z,62.17
2018-03-07T09:43:28.233Z,61.88
2018-03-07T09:45:55.717Z,63.78
2018-03-07T09:48:23.173Z,53.87
2018-03-07T09:50:50.654Z,47.90
2018-03-07T09:53:18.899Z,68.47
2018-03-07T09:55:46.375Z,56.72
2018-03-07T09:58:14.640Z,53.92
2018-03-07T10:00:42.206Z,53.87
2018-03-07T10:03:10.435Z,50.65
2018-03-07T10:05:37.909Z,50.75
2018-03-07T10:08:05.385Z,57.70
2018-03-07T10:10:32.946Z,51.58
2018-03-07T10:13:00.409Z,53.20
2018-03-07T10:15:28.658Z,48.58
2018-03-07T10:17:56.117Z,49.67
2018-03-07T10:20:23.595Z,51.28
2018-03-07T10:22:51.865Z,47.03
2018-03-07T10:25:19.322Z,44.63
2018-03-07T10:27:46.876Z,48.25
2018-03-07T10:30:14.336Z,48.42
2018-03-07T10:32:41.796Z,48.53
2018-03-07T10:35:10.057Z,43.53
2018-03-07T10:37:37.523Z,45.25
2018-03-07T10:40:05.005Z,42.83
2018-03-07T10:42:33.233Z,44.78
2018-03-07T10:45:00.761Z,42.92
2018-03-07T10:47:28.221Z,46.33
2018-03-07T10:49:55.680Z,44.50
2018-03-07T10:52:23.192Z,47.13
2018-03-07T10:54:51.481Z,43.67
2018-03-07T10:57:19.735Z,41.30
2018-03-07T10:59:47.192Z,50.42
2018-03-07T11:02:14.800Z,46.60
2018-03-07T11:04:42.268Z,40.80
2018-03-07T11:07:09.769Z,36.85
2018-03-07T11:09:37.225Z,39.92
2018-03-07T11:12:04.773Z,46.53
2018-03-07T11:14:32.391Z,44.78
2018-03-07T11:17:00.581Z,43.78
2018-03-07T11:19:28.066Z,45.42
2018-03-07T11:21:57.053Z,45.50
2018-03-07T11:24:25.326Z,44.10
2018-03-07T11:26:52.784Z,38.35
2018-03-07T11:29:20.349Z,39.75
2018-03-07T11:31:47.833Z,37.13
2018-03-07T11:34:15.384Z,41.92
2018-03-07T11:36:43.617Z,39.00
2018-03-07T11:39:11.105Z,36.28
2018-03-07T11:41:38.669Z,45.28
2018-03-07T11:44:06.941Z,38.53
2018-03-07T11:46:34.408Z,39.47
2018-03-07T11:49:02.647Z,38.25
2018-03-07T11:51:30.109Z,37.50
2018-03-07T11:53:57.580Z,41.00
2018-03-07T11:56:25.049Z,38.22
2018-03-07T11:58:53.308Z,43.47
2018-03-07T12:01:20.870Z,48.28
2018-03-07T12:03:48.347Z,37.92
2018-03-07T12:06:16.763Z,43.17
2018-03-07T12:08:44.265Z,37.28
2018-03-07T12:11:11.732Z,43.22
2018-03-07T12:13:39.986Z,39.67
2018-03-07T12:16:08.237Z,41.63
2018-03-07T12:18:35.823Z,39.83
2018-03-07T12:21:03.429Z,40.75
2018-03-07T12:23:30.898Z,46.88
2018-03-07T12:25:58.367Z,48.90
2018-03-07T12:28:25.873Z,46.90
2018-03-07T12:30:54.101Z,52.75
2018-03-07T12:33:21.576Z,52.72
2018-03-07T12:38:32.361Z,58.55
2018-03-07T12:40:59.897Z,60.03
2018-03-07T12:43:27.472Z,49.22
2018-03-07T12:45:54.949Z,54.33
2018-03-07T12:48:22.414Z,64.00
2018-03-07T12:50:49.977Z,58.33
2018-03-07T12:53:17.445Z,65.50
2018-03-07T12:55:45.688Z,66.12
2018-03-07T12:58:13.168Z,66.35
2018-03-07T13:00:41.405Z,64.15
2018-03-07T13:03:08.880Z,73.80
2018-03-07T13:05:36.357Z,74.78
2018-03-07T13:08:04.617Z,74.35
2018-03-07T13:10:32.080Z,76.82
2018-03-07T13:12:59.635Z,80.00
2018-03-07T13:15:27.061Z,70.78
2018-03-07T13:17:54.526Z,68.05
2018-03-07T13:20:22.017Z,71.32
2018-03-07T13:22:50.278Z,69.90
2018-03-07T13:25:17.733Z,74.57
2018-03-07T13:27:45.302Z,65.97
2018-03-07T13:30:12.770Z,71.62
2018-03-07T13:32:41.005Z,72.53
2018-03-07T13:35:08.482Z,70.22
2018-03-07T13:37:35.958Z,66.43
2018-03-07T13:40:04.185Z,76.15
2018-03-07T13:42:31.654Z,68.80
2018-03-07T13:44:59.121Z,87.70
2018-03-07T13:47:26.594Z,78.45
2018-03-07T13:49:54.141Z,69.50
2018-03-07T13:52:23.137Z,82.62
2018-03-07T13:54:51.003Z,83.28
2018-03-07T13:57:18.483Z,70.37
2018-03-07T13:59:46.709Z,76.87
2018-03-07T14:02:16.552Z,74.65
2018-03-07T14:04:44.021Z,79.65
2018-03-07T14:07:12.253Z,84.72
2018-03-07T14:09:39.728Z,69.80
2018-03-07T14:12:07.298Z,72.45
2018-03-07T14:14:34.760Z,70.72
2018-03-07T14:17:03.026Z,73.57
2018-03-07T14:19:30.494Z,84.62
2018-03-07T14:21:58.721Z,66.93
2018-03-07T14:24:26.198Z,70.18
2018-03-07T14:26:53.656Z,68.07
2018-03-07T14:29:21.125Z,70.28
2018-03-07T14:31:48.581Z,73.05
2018-03-07T14:34:16.069Z,69.18
2018-03-07T14:36:44.314Z,79.12
2018-03-07T14:39:11.779Z,70.43
2018-03-07T14:41:39.248Z,74.03
2018-03-07T14:44:07.560Z,74.00
2018-03-07T14:46:35.041Z,73.35
2018-03-07T14:49:02.527Z,78.05
2018-03-07T14:51:30.132Z,65.20
2018-03-07T14:53:57.616Z,64.22
2018-03-07T14:56:25.189Z,80.65
2018-03-07T14:58:52.669Z,75.87
2018-03-07T15:01:20.897Z,77.85
2018-03-07T15:03:49.849Z,74.97
2018-03-07T15:06:17.738Z,75.28
2018-03-07T15:08:45.348Z,79.43
2018-03-07T15:11:12.817Z,73.28
2018-03-07T15:13:41.165Z,80.62
2018-03-07T15:16:08.657Z,87.30
2018-03-07T15:18:36.911Z,73.12
2018-03-07T15:21:04.385Z,71.37
2018-03-07T15:23:32.624Z,81.55
2018-03-07T15:26:00.111Z,74.05
2018-03-07T15:28:27.729Z,71.85
2018-03-07T15:30:55.197Z,83.47
2018-03-07T15:33:22.728Z,77.57
2018-03-07T15:35:50.194Z,80.70
2018-03-07T15:38:17.658Z,64.18
2018-03-07T15:40:45.131Z,79.57
2018-03-07T15:43:12.605Z,78.30
2018-03-07T15:45:40.090Z,82.15
2018-03-07T15:48:07.566Z,80.35
2018-03-07T15:50:35.023Z,66.90
2018-03-07T15:53:02.534Z,81.70
2018-03-07T15:55:30.097Z,67.70
2018-03-07T15:57:57.560Z,74.62
2018-03-07T16:00:25.884Z,75.05
2018-03-07T16:02:53.385Z,70.57
2018-03-07T16:05:20.945Z,72.97
2018-03-07T16:07:48.412Z,65.87
2018-03-07T16:10:16.653Z,71.40
2018-03-07T16:12:44.137Z,67.93
2018-03-07T16:15:11.628Z,65.12
2018-03-07T16:17:39.113Z,74.82
2018-03-07T16:20:06.590Z,67.57
2018-03-07T16:22:34.045Z,72.85
2018-03-07T16:25:01.553Z,70.03
2018-03-07T16:27:29.029Z,71.32
2018-03-07T16:29:56.529Z,78.35
2018-03-07T16:32:24.081Z,83.12
2018-03-07T16:34:51.649Z,84.05
2018-03-07T16:37:19.157Z,69.87
2018-03-07T16:39:46.617Z,73.35
2018-03-07T16:42:14.113Z,89.10
2018-03-07T16:44:41.610Z,82.70
2018-03-07T16:47:09.855Z,73.32
2018-03-07T16:49:37.316Z,81.97
2018-03-07T16:52:04.790Z,77.20
2018-03-07T16:54:33.049Z,74.45
2018-03-07T16:57:00.521Z,75.50
2018-03-07T16:59:28.825Z,80.20
2018-03-07T17:01:56.337Z,79.87
2018-03-07T17:04:23.801Z,83.70
2018-03-07T17:06:52.064Z,79.30
2018-03-07T17:09:19.546Z,89.95
2018-03-07T17:11:47.777Z,89.20
2018-03-07T17:14:15.254Z,79.90
2018-03-07T17:16:42.815Z,87.55
2018-03-07T17:19:10.284Z,91.78
2018-03-07T17:21:38.505Z,87.70
2018-03-07T17:24:06.000Z,93.03
2018-03-07T17:26:34.314Z,91.37
2018-03-07T17:29:01.782Z,90.62
2018-03-07T17:31:29.256Z,97.70
2018-03-07T17:33:56.725Z,94.55
2018-03-07T17:36:24.202Z,91.97
2018-03-07T17:38:51.676Z,97.25
2018-03-07T17:41:19.942Z,92.93
2018-03-07T17:43:48.201Z,102.12
2018-03-07T17:46:15.668Z,98.03
2018-03-07T17:48:43.128Z,98.37
2018-03-07T17:51:11.397Z,88.78
2018-03-07T17:53:38.856Z,84.55
2018-03-07T17:56:07.850Z,88.50
2018-03-07T17:58:35.416Z,96.72
2018-03-07T18:01:02.895Z,85.28
2018-03-07T18:03:31.121Z,81.00
2018-03-07T18:05:58.581Z,82.95
2018-03-07T18:08:26.049Z,94.07
2018-03-07T18:10:53.759Z,84.62
2018-03-07T18:13:21.326Z,85.12
2018-03-07T18:15:48.798Z,84.78
2018-03-07T18:18:16.343Z,84.72
2018-03-07T18:20:43.848Z,88.82
2018-03-07T18:23:11.309Z,82.90
2018-03-07T18:25:38.785Z,85.80
2018-03-07T18:28:07.044Z,74.80
2018-03-07T18:30:35.317Z,87.53
2018-03-07T18:33:02.781Z,81.20
2018-03-07T18:35:31.013Z,75.20
2018-03-07T18:37:58.854Z,82.90
2018-03-07T18:40:26.361Z,79.28
2018-03-07T18:42:53.926Z,82.03
2018-03-07T18:45:21.387Z,77.10
2018-03-07T18:47:48.857Z,79.43
2018-03-07T18:50:17.109Z,81.75
2018-03-07T18:52:44.580Z,83.20
2018-03-07T18:55:12.824Z,80.75
2018-03-07T18:57:40.312Z,71.95
2018-03-07T19:00:07.780Z,80.53
2018-03-07T19:02:36.038Z,83.40
2018-03-07T19:05:04.277Z,74.72
2018-03-07T19:07:31.748Z,79.53
2018-03-07T19:09:59.230Z,80.57
2018-03-07T19:12:26.825Z,90.45
2018-03-07T19:14:55.034Z,77.03
2018-03-07T19:17:22.502Z,79.18
2018-03-07T19:19:49.985Z,80.62
2018-03-07T19:22:18.214Z,87.05
2018-03-07T19:24:45.675Z,83.72
2018-03-07T19:27:13.253Z,79.03
2018-03-07T19:29:40.744Z,82.50
2018-03-07T19:32:08.996Z,82.50
2018-03-07T19:34:36.489Z,100.35
2018-03-07T19:37:03.994Z,94.13
2018-03-07T19:39:31.460Z,87.20
2018-03-07T19:41:59.023Z,96.22
2018-03-07T19:44:26.498Z,95.12
2018-03-07T19:46:54.729Z,97.97
2018-03-07T19:49:22.201Z,86.80
2018-03-07T19:51:49.868Z,84.53
2018-03-07T19:54:17.334Z,91.40
2018-03-07T19:56:44.944Z,91.90
2018-03-07T19:59:12.355Z,86.28
2018-03-07T20:01:39.845Z,98.55
2018-03-07T20:04:07.356Z,91.47
2018-03-07T20:06:34.933Z,90.57
2018-03-07T20:09:03.158Z,87.60
2018-03-07T20:11:30.705Z,97.53
2018-03-07T20:13:58.161Z,89.75
2018-03-07T20:16:25.662Z,81.10
2018-03-07T20:18:53.221Z,95.20
2018-03-07T20:21:20.682Z,91.82
2018-03-07T20:23:48.141Z,98.37
2018-03-07T20:26:15.694Z,84.75
2018-03-07T20:28:43.250Z,90.05
2018-03-07T20:31:10.713Z,87.95
2018-03-07T20:33:38.270Z,105.07
2018-03-07T20:36:05.768Z,101.35
2018-03-07T20:38:33.241Z,91.07
2018-03-07T20:41:00.747Z,115.35
2018-03-07T20:43:28.311Z,94.32
2018-03-07T20:45:55.963Z,96.25
2018-03-07T20:48:23.421Z,94.50
2018-03-07T20:50:50.885Z,101.32
2018-03-07T20:53:18.437Z,97.18
2018-03-07T20:55:45.900Z,106.78
2018-03-07T20:58:13.453Z,96.18
2018-03-07T21:00:41.009Z,103.20
2018-03-07T21:03:08.472Z,104.18
2018-03-07T21:05:35.946Z,92.55
2018-03-07T21:08:04.173Z,93.43
2018-03-07T21:10:31.662Z,101.28
2018-03-07T21:12:59.121Z,104.55
2018-03-07T21:15:27.369Z,92.88
2018-03-07T21:17:54.949Z,103.68
2018-03-07T21:20:22.426Z,96.53
2018-03-07T21:22:50.682Z,98.75
2018-03-07T21:25:18.188Z,110.07
2018-03-07T21:27:45.642Z,105.75
2018-03-07T21:30:13.112Z,105.32
2018-03-07T21:32:40.583Z,106.37
2018-03-07T21:35:08.065Z,115.35
2018-03-07T21:37:35.527Z,108.30
2018-03-07T21:40:03.077Z,103.90
2018-03-07T21:42:30.644Z,117.18
2018-03-07T21:44:58.105Z,100.43
2018-03-07T21:47:26.366Z,107.57
2018-03-07T21:49:53.878Z,107.70
2018-03-07T21:52:21.385Z,114.60
2018-03-07T21:54:48.845Z,127.97
2018-03-07T21:57:16.321Z,108.53
2018-03-07T21:59:44.553Z,114.25
2018-03-07T22:02:12.129Z,118.82
2018-03-07T22:04:39.599Z,123.28
2018-03-07T22:07:07.067Z,114.35
2018-03-07T22:09:35.344Z,112.78
2018-03-07T22:12:03.577Z,103.43
2018-03-07T22:14:31.033Z,113.03
2018-03-07T22:16:58.606Z,121.53
2018-03-07T22:19:26.064Z,121.93
2018-03-07T22:21:53.551Z,116.03
2018-03-07T22:24:21.786Z,119.25
2018-03-07T22:26:49.248Z,133.00
2018-03-07T22:29:16.718Z,128.32
2018-03-07T22:31:44.202Z,122.05
2018-03-07T22:34:12.434Z,130.18
2018-03-07T22:36:39.901Z,116.37
2018-03-07T22:39:08.175Z,120.78
2018-03-07T22:41:35.735Z,120.65
2018-03-07T22:44:03.205Z,127.20
2018-03-07T22:46:31.484Z,124.25
2018-03-07T22:48:59.719Z,114.75
2018-03-07T22:51:27.197Z,125.28
2018-03-07T22:53:54.701Z,126.47
2018-03-07T22:56:22.908Z,133.65
2018-03-07T22:58:50.403Z,129.25
2018-03-07T23:01:18.655Z,125.85
2018-03-07T23:03:46.166Z,126.15
2018-03-07T23:06:13.653Z,121.20
2018-03-07T23:08:41.118Z,127.12
2018-03-07T23:11:08.609Z,125.10
2018-03-07T23:13:36.833Z,123.03
2018-03-07T23:16:04.309Z,135.80
2018-03-07T23:18:33.571Z,126.05
2018-03-07T23:21:01.089Z,119.13
2018-03-07T23:23:28.553Z,130.98
2018-03-07T23:25:56.792Z,124.20
2018-03-07T23:28:24.251Z,135.93
2018-03-07T23:30:51.748Z,118.75
2018-03-07T23:33:19.986Z,126.97
2018-03-07T23:35:47.450Z,116.72
2018-03-07T23:38:14.920Z,131.02
2018-03-07T23:40:42.385Z,129.12
2018-03-07T23:43:10.638Z,138.80
2018-03-07T23:45:38.117Z,131.57
2018-03-07T23:48:06.377Z,121.20
2018-03-07T23:50:33.938Z,128.15
2018-03-07T23:53:01.552Z,130.52
2018-03-07T23:55:29.022Z,122.62
2018-03-07T23:57:56.512Z,121.40
